createdAt,value
2019-03-18T00:03:02.675Z,101171.77
2019-03-18T00:08:04.192Z,101176.21
2019-03-18T00:13:05.800Z,101172.64
2019-03-18T00:18:07.344Z,101171.16
2019-03-18T00:23:08.825Z,101188.58
2019-03-18T00:28:10.364Z,101193.08
2019-03-18T00:33:11.900Z,101192.30
2019-03-18T00:38:13.526Z,101199.83
2019-03-18T00:43:15.167Z,101200.86
2019-03-18T00:48:17.096Z,101200.86
2019-03-18T00:53:18.619Z,101205.26
2019-03-18T00:58:20.156Z,101207.04
2019-03-18T01:03:21.672Z,101235.59
2019-03-18T01:08:23.223Z,101251.41
2019-03-18T01:13:25.101Z,101258.42
2019-03-18T01:18:26.588Z,101256.63
2019-03-18T01:23:28.131Z,101266.24
2019-03-18T01:28:29.737Z,101269.27
2019-03-18T01:33:31.558Z,101269.45
2019-03-18T01:38:33.765Z,101272.86
2019-03-18T01:43:35.615Z,101276.86
2019-03-18T01:48:37.125Z,101265.86
2019-03-18T01:53:38.651Z,101269.38
2019-03-18T01:58:40.596Z,101281.97
2019-03-18T02:03:42.559Z,101298.90
2019-03-18T02:08:46.690Z,101303.42
2019-03-18T02:13:49.097Z,101303.63
2019-03-18T02:18:50.662Z,101323.14
2019-03-18T02:23:52.242Z,101319.03
2019-03-18T02:28:53.808Z,101318.33
2019-03-18T02:33:55.398Z,101333.83
2019-03-18T02:38:57.299Z,101337.50
2019-03-18T02:43:58.839Z,101344.22
2019-03-18T02:49:00.394Z,101341.23
2019-03-18T02:54:01.922Z,101353.42
2019-03-18T02:59:03.449Z,101366.13
2019-03-18T03:04:04.940Z,101370.19
2019-03-18T03:09:06.458Z,101401.07
2019-03-18T03:14:07.960Z,101404.48
2019-03-18T03:19:09.522Z,101406.06
2019-03-18T03:24:11.156Z,101402.83
2019-03-18T03:29:13.077Z,101400.75
2019-03-18T03:34:14.761Z,101401.83
2019-03-18T03:39:16.293Z,101407.78
2019-03-18T03:44:17.870Z,101414.88
2019-03-18T03:49:19.403Z,101417.14
2019-03-18T03:54:20.946Z,101412.70
2019-03-18T03:59:22.647Z,101416.12
2019-03-18T04:04:24.180Z,101429.13
2019-03-18T04:09:25.712Z,101433.13
2019-03-18T04:14:27.231Z,101446.45
2019-03-18T04:19:28.804Z,101461.49
2019-03-18T04:24:30.302Z,101469.02
2019-03-18T04:29:31.952Z,101471.16
2019-03-18T04:34:33.488Z,101475.34
2019-03-18T04:39:35.038Z,101478.50
2019-03-18T04:44:36.594Z,101488.07
2019-03-18T04:49:38.137Z,101502.05
2019-03-18T04:54:39.647Z,101525.69
2019-03-18T04:59:41.157Z,101521.32
2019-03-18T05:04:42.704Z,101522.01
2019-03-18T05:09:44.266Z,101518.80
2019-03-18T05:14:45.806Z,101535.66
2019-03-18T05:19:47.419Z,101537.93
2019-03-18T05:24:49.033Z,101543.29
2019-03-18T05:29:50.557Z,101556.23
2019-03-18T05:34:52.085Z,101556.19
2019-03-18T05:39:53.629Z,101567.30
2019-03-18T05:44:55.155Z,101575.00
2019-03-18T05:49:56.713Z,101599.55
2019-03-18T05:54:58.271Z,101613.13
2019-03-18T05:59:59.792Z,101618.77
2019-03-18T06:05:01.349Z,101628.93
2019-03-18T06:10:03.369Z,101618.72
2019-03-18T06:15:05.796Z,101623.98
2019-03-18T06:20:07.386Z,101631.23
2019-03-18T06:25:09.287Z,101633.56
2019-03-18T06:30:10.849Z,101645.79
2019-03-18T06:35:12.815Z,101653.01
2019-03-18T06:40:14.317Z,101671.05
2019-03-18T06:45:15.911Z,101671.84
2019-03-18T06:50:17.442Z,101668.00
2019-03-18T06:55:19.102Z,101657.53
2019-03-18T07:00:20.793Z,101660.75
2019-03-18T07:05:22.419Z,101661.27
2019-03-18T07:10:23.976Z,101666.77
2019-03-18T07:15:25.591Z,101678.33
2019-03-18T07:20:27.529Z,101690.59
2019-03-18T07:25:29.123Z,101702.34
2019-03-18T07:30:31.373Z,101721.37
2019-03-18T07:35:32.944Z,101756.66
2019-03-18T07:40:34.517Z,101749.58
2019-03-18T07:45:36.170Z,101754.33
2019-03-18T07:50:37.732Z,101757.94
2019-03-18T07:55:39.302Z,101749.22
2019-03-18T08:00:41.225Z,101754.81
2019-03-18T08:05:42.739Z,101759.58
2019-03-18T08:10:44.593Z,101770.03
2019-03-18T08:15:46.120Z,101777.56
2019-03-18T08:20:48.171Z,101788.22
2019-03-18T08:25:49.677Z,101807.38
2019-03-18T08:30:51.210Z,101813.36
2019-03-18T08:35:52.719Z,101826.00
2019-03-18T08:40:54.246Z,101821.86
2019-03-18T08:45:55.804Z,101827.98
2019-03-18T08:50:57.311Z,101823.84
2019-03-18T08:55:58.836Z,101828.06
2019-03-18T09:01:00.321Z,101843.25
2019-03-18T09:06:01.942Z,101859.63
2019-03-18T09:11:03.443Z,101856.63
2019-03-18T09:16:05.333Z,101865.48
2019-03-18T09:21:07.202Z,101871.89
2019-03-18T09:26:08.797Z,101883.25
2019-03-18T09:31:10.676Z,101906.63
2019-03-18T09:36:12.199Z,101920.83
2019-03-18T09:41:13.757Z,101922.66
2019-03-18T09:46:15.291Z,101927.88
2019-03-18T09:51:16.835Z,101928.36
2019-03-18T09:56:18.369Z,101931.52
2019-03-18T10:01:19.896Z,101952.02
2019-03-18T10:06:22.008Z,101953.23
2019-03-18T10:11:23.589Z,101951.64
2019-03-18T10:16:25.090Z,101952.95
2019-03-18T10:21:26.594Z,101960.87
2019-03-18T10:26:28.174Z,101970.67
2019-03-18T10:31:31.083Z,101975.08
2019-03-18T10:36:32.592Z,101978.58
2019-03-18T10:41:34.216Z,101972.49
2019-03-18T10:46:36.218Z,101969.36
2019-03-18T10:51:37.727Z,101984.61
2019-03-18T10:56:41.275Z,101984.16
2019-03-18T11:01:42.812Z,101980.75
2019-03-18T11:06:44.335Z,101982.14
2019-03-18T11:11:45.859Z,101979.69
2019-03-18T11:16:47.355Z,101989.77
2019-03-18T11:21:48.894Z,101995.06
2019-03-18T11:26:50.402Z,101994.25
2019-03-18T11:31:51.938Z,102004.70
2019-03-18T11:36:53.437Z,101997.78
2019-03-18T11:41:54.950Z,102007.95
2019-03-18T11:46:56.546Z,102015.86
2019-03-18T11:51:58.511Z,102016.00
2019-03-18T11:57:00.106Z,102019.38
2019-03-18T12:02:02.028Z,102014.41
2019-03-18T12:07:03.643Z,102021.08
2019-03-18T12:12:05.154Z,102029.20
2019-03-18T12:17:06.670Z,102039.67
2019-03-18T12:22:08.176Z,102044.92
2019-03-18T12:27:09.784Z,102034.64
2019-03-18T12:32:11.422Z,102035.48
2019-03-18T12:37:12.958Z,102046.23
2019-03-18T12:42:14.893Z,102053.78
2019-03-18T12:47:16.736Z,102054.51
2019-03-18T12:52:18.457Z,102058.60
2019-03-18T12:57:20.069Z,102058.44
2019-03-18T13:02:21.578Z,102046.19
2019-03-18T13:07:23.397Z,102054.38
2019-03-18T13:12:24.876Z,102066.33
2019-03-18T13:17:26.870Z,102070.57
2019-03-18T13:22:28.513Z,102073.69
2019-03-18T13:27:30.301Z,102071.39
2019-03-18T13:32:31.838Z,102086.65
2019-03-18T13:37:33.379Z,102085.37
2019-03-18T13:42:34.886Z,102089.07
2019-03-18T13:47:36.446Z,102096.80
2019-03-18T13:52:38.067Z,102094.52
2019-03-18T13:57:39.686Z,102091.94
2019-03-18T14:02:41.385Z,102099.62
2019-03-18T14:07:43.014Z,102095.27
2019-03-18T14:12:44.563Z,102103.22
2019-03-18T14:17:46.180Z,102121.02
2019-03-18T14:22:47.751Z,102126.97
2019-03-18T14:27:49.351Z,102140.83
2019-03-18T14:32:50.865Z,102147.37
2019-03-18T14:37:52.804Z,102147.94
2019-03-18T14:42:54.427Z,102150.53
2019-03-18T14:47:55.931Z,102154.75
2019-03-18T14:52:57.482Z,102157.33
2019-03-18T14:57:59.042Z,102153.16
2019-03-18T15:03:01.675Z,102162.91
2019-03-18T15:08:03.266Z,102174.47
2019-03-18T15:13:05.098Z,102169.68
2019-03-18T15:18:06.741Z,102169.96
2019-03-18T15:23:08.272Z,102175.23
2019-03-18T15:28:09.924Z,102176.36
2019-03-18T15:33:12.600Z,102177.92
2019-03-18T15:38:14.124Z,102187.73
2019-03-18T15:43:16.443Z,102185.95
2019-03-18T15:48:18.079Z,102195.91
2019-03-18T15:53:19.693Z,102195.37
2019-03-18T15:58:21.339Z,102192.57
2019-03-18T16:03:23.990Z,102194.86
2019-03-18T16:08:25.773Z,102199.34
2019-03-18T16:13:27.673Z,102200.55
2019-03-18T16:18:29.282Z,102212.34
2019-03-18T16:23:30.956Z,102211.97
2019-03-18T16:28:32.620Z,102212.52
2019-03-18T16:33:34.255Z,102218.39
2019-03-18T16:38:35.814Z,102227.92
2019-03-18T16:43:37.321Z,102231.52
2019-03-18T16:48:38.943Z,102242.55
2019-03-18T16:53:40.455Z,102250.91
2019-03-18T16:58:44.118Z,102252.78
2019-03-18T17:03:45.963Z,102259.53
2019-03-18T17:08:47.474Z,102259.98
2019-03-18T17:13:49.005Z,102268.19
2019-03-18T17:18:51.027Z,102276.34
2019-03-18T17:23:52.900Z,102278.81
2019-03-18T17:28:54.416Z,102292.69
2019-03-18T17:33:56.134Z,102301.31
2019-03-18T17:38:57.698Z,102300.85
2019-03-18T17:43:59.222Z,102305.22
2019-03-18T17:49:00.875Z,102308.00
2019-03-18T17:54:02.371Z,102319.22
2019-03-18T17:59:03.924Z,102325.46
2019-03-18T18:04:05.529Z,102338.01
2019-03-18T18:09:07.202Z,102334.61
2019-03-18T18:14:09.236Z,102344.73
2019-03-18T18:19:11.204Z,102349.08
2019-03-18T18:24:12.844Z,102352.73
2019-03-18T18:29:14.721Z,102363.68
2019-03-18T18:34:16.570Z,102371.86
2019-03-18T18:39:18.547Z,102375.05
2019-03-18T18:44:20.062Z,102376.58
2019-03-18T18:49:21.672Z,102378.17
2019-03-18T18:54:23.317Z,102390.63
2019-03-18T18:59:24.875Z,102393.49
2019-03-18T19:04:26.587Z,102400.86
2019-03-18T19:09:28.112Z,102410.16
2019-03-18T19:14:29.668Z,102408.38
2019-03-18T19:19:32.329Z,102420.03
2019-03-18T19:24:34.020Z,102417.84
2019-03-18T19:29:36.774Z,102429.75
2019-03-18T19:34:38.355Z,102429.66
2019-03-18T19:39:40.011Z,102428.98
2019-03-18T19:44:41.657Z,102433.56
2019-03-18T19:49:43.598Z,102444.51
2019-03-18T19:54:46.217Z,102443.60
2019-03-18T19:59:47.870Z,102455.22
2019-03-18T20:04:49.666Z,102457.67
2019-03-18T20:09:51.394Z,102462.62
2019-03-18T20:14:53.123Z,102468.22
2019-03-18T20:19:54.879Z,102471.47
2019-03-18T20:24:56.516Z,102482.77
2019-03-18T20:29:58.543Z,102479.23
2019-03-18T20:35:00.531Z,102490.56
2019-03-18T20:40:02.156Z,102496.91
2019-03-18T20:45:04.628Z,102507.31
2019-03-18T20:50:08.076Z,102521.08
2019-03-18T20:55:09.757Z,102522.24
2019-03-18T21:00:12.747Z,102525.44
2019-03-18T21:05:14.334Z,102522.02
2019-03-18T21:10:15.970Z,102535.20
2019-03-18T21:15:17.660Z,102541.30
2019-03-18T21:20:19.202Z,102544.94
2019-03-18T21:25:20.834Z,102544.00
2019-03-18T21:30:22.502Z,102550.95
2019-03-18T21:35:24.069Z,102555.58
2019-03-18T21:40:26.181Z,102557.09
2019-03-18T21:45:27.736Z,102568.69
2019-03-18T21:50:29.408Z,102569.67
2019-03-18T21:55:31.031Z,102578.05
2019-03-18T22:00:32.669Z,102578.39
2019-03-18T22:05:34.199Z,102579.36
2019-03-18T22:10:35.992Z,102581.75
2019-03-18T22:15:37.925Z,102576.75
2019-03-18T22:20:39.598Z,102577.47
2019-03-18T22:25:41.136Z,102587.64
2019-03-18T22:30:42.876Z,102586.91
2019-03-18T22:35:44.845Z,102590.08
2019-03-18T22:40:46.447Z,102594.42
2019-03-18T22:45:48.033Z,102600.86
2019-03-18T22:50:49.781Z,102601.56
2019-03-18T22:55:51.366Z,102603.34
2019-03-18T23:00:52.990Z,102599.81
2019-03-18T23:05:54.621Z,102605.81
2019-03-18T23:10:56.599Z,102610.70
2019-03-18T23:15:58.163Z,102610.64
2019-03-18T23:21:00.152Z,102603.72
2019-03-18T23:26:01.704Z,102615.17
2019-03-18T23:31:03.275Z,102628.92
2019-03-18T23:36:04.900Z,102627.18
2019-03-18T23:41:06.878Z,102638.92
2019-03-18T23:46:08.498Z,102631.86
2019-03-18T23:51:10.082Z,102627.29
2019-03-18T23:56:11.658Z,102625.15
